createdAt,value
2019-04-07T00:03:51.725Z,5.10
2019-04-07T00:08:59.643Z,4.90
2019-04-07T00:14:07.293Z,4.80
2019-04-07T00:19:15.553Z,4.80
2019-04-07T00:24:22.977Z,4.70
2019-04-07T00:29:30.706Z,4.60
2019-04-07T00:34:38.159Z,4.60
2019-04-07T00:39:45.501Z,4.50
2019-04-07T00:44:53.260Z,4.40
2019-04-07T00:50:00.762Z,4.30
2019-04-07T00:55:08.873Z,4.30
2019-04-07T01:00:17.061Z,4.20
2019-04-07T01:05:35.371Z,4.10
2019-04-07T01:10:34.742Z,4.00
2019-04-07T01:15:42.778Z,3.90
2019-04-07T01:20:51.890Z,3.90
2019-04-07T01:25:59.250Z,3.80
2019-04-07T01:31:07.182Z,3.70
2019-04-07T01:36:15.153Z,3.70
2019-04-07T01:41:34.068Z,3.70
2019-04-07T01:46:58.078Z,3.60
2019-04-07T01:52:21.052Z,3.60
2019-04-07T01:57:47.710Z,3.50
2019-04-07T02:03:23.069Z,3.40
2019-04-07T02:08:40.353Z,3.40
2019-04-07T02:14:13.802Z,3.30
2019-04-07T02:19:40.355Z,3.20
2019-04-07T02:24:57.559Z,3.10
2019-04-07T02:30:23.936Z,2.90
2019-04-07T02:35:52.406Z,2.90
2019-04-07T02:41:10.318Z,2.80
2019-04-07T02:46:36.569Z,2.80
2019-04-07T02:51:57.484Z,2.70
2019-04-07T02:57:26.834Z,2.60
2019-04-07T03:02:59.710Z,2.50
2019-04-07T03:08:25.762Z,2.50
2019-04-07T03:13:54.274Z,2.40
2019-04-07T03:19:27.163Z,2.40
2019-04-07T03:25:11.551Z,2.30
2019-04-07T03:30:51.858Z,2.30
2019-04-07T03:36:11.542Z,2.30
2019-04-07T03:41:24.400Z,2.30
2019-04-07T03:46:39.699Z,2.20
2019-04-07T03:51:54.517Z,2.20
2019-04-07T03:57:23.889Z,2.10
2019-04-07T04:02:48.441Z,2.00
2019-04-07T04:08:06.254Z,2.00
2019-04-07T04:13:51.019Z,1.90
2019-04-07T04:18:58.756Z,1.90
2019-04-07T04:24:06.191Z,1.90
2019-04-07T04:29:14.123Z,2.00
2019-04-07T04:34:21.147Z,2.00
2019-04-07T04:39:29.423Z,2.10
2019-04-07T04:44:36.732Z,2.20
2019-04-07T04:49:44.826Z,2.30
2019-04-07T04:54:54.859Z,2.50
2019-04-07T05:00:02.279Z,2.60
2019-04-07T05:05:13.345Z,2.70
2019-04-07T05:10:21.074Z,3.00
2019-04-07T05:15:28.905Z,3.20
2019-04-07T05:20:36.058Z,3.50
2019-04-07T05:25:44.912Z,3.70
2019-04-07T05:30:52.126Z,4.10
2019-04-07T05:36:00.482Z,4.40
2019-04-07T05:41:07.740Z,4.70
2019-04-07T05:46:14.871Z,5.00
2019-04-07T05:51:22.102Z,5.40
2019-04-07T05:56:30.581Z,5.80
2019-04-07T06:01:38.220Z,6.20
2019-04-07T06:06:45.344Z,6.70
2019-04-07T06:11:53.236Z,7.10
2019-04-07T06:17:01.116Z,7.60
2019-04-07T06:22:08.653Z,8.20
2019-04-07T06:27:16.917Z,8.70
2019-04-07T06:32:25.457Z,9.20
2019-04-07T06:37:33.099Z,9.70
2019-04-07T06:42:43.654Z,10.10
2019-04-07T06:47:56.199Z,10.60
2019-04-07T06:53:28.146Z,11.00
2019-04-07T06:59:11.765Z,11.30
2019-04-07T07:04:32.273Z,11.80
2019-04-07T07:10:25.952Z,12.30
2019-04-07T07:16:05.153Z,12.60
2019-04-07T07:21:27.508Z,13.00
2019-04-07T07:26:35.509Z,13.30
2019-04-07T07:31:44.819Z,13.40
2019-04-07T07:36:54.895Z,13.50
2019-04-07T07:42:01.727Z,13.70
2019-04-07T07:47:10.363Z,14.00
2019-04-07T07:52:20.646Z,14.30
2019-04-07T07:57:26.242Z,14.50
2019-04-07T08:02:33.405Z,14.70
2019-04-07T08:07:44.348Z,14.80
2019-04-07T08:12:49.668Z,15.00
2019-04-07T08:17:58.563Z,15.30
2019-04-07T08:23:06.872Z,15.30
2019-04-07T08:28:14.704Z,15.30
2019-04-07T08:33:22.606Z,15.60
2019-04-07T08:38:31.090Z,16.00
2019-04-07T08:43:38.577Z,16.30
2019-04-07T08:48:49.740Z,16.50
2019-04-07T08:53:54.833Z,16.70
2019-04-07T08:59:02.818Z,16.70
2019-04-07T09:04:10.048Z,16.70
2019-04-07T09:09:17.977Z,16.80
2019-04-07T09:14:25.640Z,17.00
2019-04-07T09:19:54.710Z,16.90
2019-04-07T09:25:28.263Z,17.10
2019-04-07T09:30:54.711Z,17.60
2019-04-07T09:36:36.412Z,18.00
2019-04-07T09:42:03.069Z,18.20
2019-04-07T09:47:39.130Z,18.60
2019-04-07T09:53:08.964Z,19.10
2019-04-07T09:58:33.619Z,19.10
2019-04-07T10:03:50.351Z,19.40
2019-04-07T10:09:21.806Z,19.70
2019-04-07T10:14:48.721Z,19.50
2019-04-07T10:20:19.984Z,19.80
2019-04-07T10:25:48.515Z,20.20
2019-04-07T10:31:20.474Z,20.20
2019-04-07T10:36:51.957Z,20.40
2019-04-07T10:42:30.357Z,20.70
2019-04-07T10:48:06.916Z,20.80
2019-04-07T10:53:39.423Z,21.00
2019-04-07T10:59:21.042Z,21.30
2019-04-07T11:04:59.190Z,21.40
2019-04-07T11:10:34.453Z,21.80
2019-04-07T11:15:57.606Z,22.40
2019-04-07T11:21:35.968Z,22.30
2019-04-07T11:26:59.463Z,22.50
2019-04-07T11:32:21.001Z,23.00
2019-04-07T11:37:32.981Z,23.30
2019-04-07T11:42:46.087Z,22.90
2019-04-07T11:48:12.184Z,22.40
2019-04-07T11:53:44.273Z,22.50
2019-04-07T11:59:07.964Z,23.40
2019-04-07T12:04:27.699Z,24.30
2019-04-07T12:09:52.937Z,25.20
2019-04-07T12:15:22.737Z,26.00
2019-04-07T12:20:38.610Z,27.30
2019-04-07T12:26:07.618Z,28.70
2019-04-07T12:31:43.348Z,29.50
2019-04-07T12:37:10.202Z,30.60
2019-04-07T12:42:40.294Z,31.80
2019-04-07T12:48:09.216Z,32.90
2019-04-07T12:53:42.230Z,33.30
2019-04-07T12:59:14.273Z,34.40
2019-04-07T13:04:37.525Z,35.20
2019-04-07T13:10:07.255Z,35.30
2019-04-07T13:15:45.452Z,35.60
2019-04-07T13:21:01.151Z,35.80
2019-04-07T13:26:18.697Z,36.70
2019-04-07T13:31:38.461Z,37.50
2019-04-07T13:36:54.231Z,37.40
2019-04-07T13:42:27.618Z,37.80
2019-04-07T13:47:48.387Z,37.30
2019-04-07T13:53:20.722Z,36.90
2019-04-07T13:58:37.598Z,37.80
2019-04-07T14:04:02.413Z,37.70
2019-04-07T14:09:35.377Z,36.80
2019-04-07T14:15:14.277Z,36.90
2019-04-07T14:20:47.524Z,37.30
2019-04-07T14:26:11.381Z,37.50
2019-04-07T14:31:37.934Z,37.20
2019-04-07T14:37:17.429Z,37.20
2019-04-07T14:42:52.449Z,35.90
2019-04-07T14:48:17.442Z,36.20
2019-04-07T14:53:46.179Z,36.50
2019-04-07T14:59:16.619Z,36.30
2019-04-07T15:04:29.102Z,35.70
2019-04-07T15:09:43.422Z,36.20
2019-04-07T15:14:52.394Z,36.20
2019-04-07T15:20:00.395Z,35.20
2019-04-07T15:25:08.954Z,35.20
2019-04-07T15:30:18.067Z,35.00
2019-04-07T15:35:25.357Z,34.90
2019-04-07T15:40:35.629Z,34.80
2019-04-07T15:45:44.096Z,34.40
2019-04-07T15:50:51.804Z,33.40
2019-04-07T15:56:03.041Z,32.30
2019-04-07T16:01:09.395Z,31.30
2019-04-07T16:06:17.465Z,30.60
2019-04-07T16:11:27.403Z,30.30
2019-04-07T16:16:35.043Z,29.70
2019-04-07T16:21:44.028Z,29.10
2019-04-07T16:26:51.527Z,28.60
2019-04-07T16:31:58.781Z,28.20
2019-04-07T16:37:09.445Z,27.30
2019-04-07T16:42:17.353Z,26.70
2019-04-07T16:47:29.236Z,25.90
2019-04-07T16:52:35.262Z,25.10
2019-04-07T16:57:42.520Z,24.00
2019-04-07T17:02:49.860Z,23.50
2019-04-07T17:08:08.678Z,22.50
2019-04-07T17:13:27.719Z,21.30
2019-04-07T17:18:41.432Z,19.30
2019-04-07T17:23:53.315Z,17.80
2019-04-07T17:28:59.695Z,16.50
2019-04-07T17:34:10.055Z,15.60
2019-04-07T17:39:24.717Z,14.90
2019-04-07T17:44:51.659Z,14.40
2019-04-07T17:50:14.664Z,14.00
2019-04-07T17:55:46.772Z,13.60
2019-04-07T18:01:08.279Z,13.20
2019-04-07T18:06:33.486Z,12.90
2019-04-07T18:12:14.124Z,12.60
2019-04-07T18:17:33.478Z,12.30
2019-04-07T18:23:03.354Z,12.00
2019-04-07T18:28:37.503Z,11.70
2019-04-07T18:34:06.574Z,11.50
2019-04-07T18:39:31.851Z,11.30
2019-04-07T18:44:57.469Z,11.10
2019-04-07T18:50:41.380Z,10.80
2019-04-07T18:56:09.893Z,10.50
2019-04-07T19:01:38.908Z,10.30
2019-04-07T19:06:55.844Z,10.10
2019-04-07T19:12:23.111Z,9.90
2019-04-07T19:17:58.947Z,9.70
2019-04-07T19:23:26.268Z,9.40
2019-04-07T19:29:00.425Z,9.30
2019-04-07T19:34:18.799Z,9.10
2019-04-07T19:39:47.508Z,8.90
2019-04-07T19:45:24.131Z,8.80
2019-04-07T19:50:39.058Z,8.60
2019-04-07T19:56:05.476Z,8.40
2019-04-07T20:01:31.554Z,8.30
2019-04-07T20:07:04.866Z,8.10
2019-04-07T20:12:42.537Z,7.90
2019-04-07T20:18:29.277Z,7.80
2019-04-07T20:23:52.699Z,7.70
2019-04-07T20:29:20.152Z,7.50
2019-04-07T20:34:47.176Z,7.30
2019-04-07T20:40:11.534Z,7.20
2019-04-07T20:45:34.095Z,7.10
2019-04-07T20:50:50.156Z,6.80
2019-04-07T20:56:22.852Z,6.60
2019-04-07T21:01:59.884Z,6.40
2019-04-07T21:07:09.989Z,6.30
2019-04-07T21:12:32.216Z,6.20
2019-04-07T21:18:11.327Z,6.00
2019-04-07T21:23:36.945Z,5.80
2019-04-07T21:29:02.344Z,5.70
2019-04-07T21:34:16.597Z,5.70
2019-04-07T21:39:55.724Z,5.50
2019-04-07T21:45:38.941Z,5.30
2019-04-07T21:51:16.824Z,5.10
2019-04-07T21:56:44.205Z,5.00
2019-04-07T22:02:19.459Z,4.90
2019-04-07T22:07:41.992Z,4.80
2019-04-07T22:12:49.801Z,4.70
2019-04-07T22:17:56.877Z,4.60
2019-04-07T22:23:04.372Z,4.50
2019-04-07T22:28:12.592Z,4.40
2019-04-07T22:33:22.908Z,4.40
2019-04-07T22:38:29.363Z,4.30
2019-04-07T22:43:37.013Z,4.20
2019-04-07T22:48:44.858Z,4.10
2019-04-07T22:53:54.372Z,4.10
2019-04-07T22:59:01.565Z,4.00
2019-04-07T23:04:08.740Z,4.00
2019-04-07T23:09:16.101Z,3.90
2019-04-07T23:14:23.430Z,3.80
2019-04-07T23:19:30.743Z,3.80
2019-04-07T23:24:37.795Z,3.70
2019-04-07T23:29:44.891Z,3.60
2019-04-07T23:34:52.084Z,3.60
2019-04-07T23:40:00.233Z,3.60
2019-04-07T23:45:08.725Z,3.50
2019-04-07T23:50:16.763Z,3.40
2019-04-07T23:55:24.124Z,3.30
